コロンボ の空港の天気 - METARとTAF

バンダラナイケ国際空港 ( VCBI / CMB ) - スリランカ コロンボ
飛行場実況気象(Metar)
観測時間11/16 21:40 IST (11/16 16:10 UTC)
風向・風速東北東 2m/s
視程9000m
天気現象
少しの雲 雲底高度 520m
気温26℃
湿度89%
気圧1012hPa
METARVCBI 161610Z 06003KT 010V140 9000 FEW017 26/24 Q1012 NOSIG
過去の天気等 Google飛行場航空写真 Wunderground天気予報

過去48時間のMETAR

飛行場予報(TAF)
発表時間: 11/16 16:30 IST (11/16 11:00 UTC)
予報対象時間: 16日17時 IST ~ 17日23時 IST
風向・風速南西 4m/s
視程9000m
全天の4割程度の雲 雲底高度 520m
16日22時 IST ~ 16日23時 IST に徐々に
視程6000m
天気現象もや
17日8時 IST ~ 17日9時 IST に徐々に
視程9000m
TAF VCBI 161100Z 1612/1718 23008KT 9000 SCT017 TX30/1707Z TN24/1700Z
BECMG 1617/1618 6000 BR
FM1623 2000BR
BECMG 1703/1704 9000